Aérodrome :
LOGIN :

S'inscrire | Disclaimer

   EN    FR    IT 

 










Légende :    VFR   VFR Marginal   IFR   IFR Intensif   IFR Très Intensif
Visi : 
Plafond : 
>= 8 km
>= 3000ft
5 à 8 km
1000 à 3000 ft
1500m à 5 km
500 à 1000 ft
800 à 1500m
200 à 500 ft
< 800m
< 200 ft
Symboles :   Orages  Brouillard  Fortes neiges  Fortes précipitations  Vent > 20 kt
SIGMETs :   Divers  Orages  Givrage  Turbulence  Onde Orograph.  Cendres Volcan.







- Altitude de l'aérodrome : 458 ft
- Voir les cartes d'approche


LFSI - St-Dizier

DERNIER METAR :
  • 211300Z AUTO 05011KT 020V080 CAVOK 16/M05 Q1031

METARs EXPIRÉS :
  • 211230Z AUTO 06009KT 010V090 CAVOK 16/M03 Q1031
  • 211200Z AUTO 07010KT 030V110 CAVOK 15/M04 Q1032
  • 211130Z AUTO 06010KT 030V100 CAVOK 14/M04 Q1032
  • 211100Z AUTO 07012KT CAVOK 13/M05 Q1032
  • 211030Z AUTO 06013KT CAVOK 13/M04 Q1032

TAF TAF LFSI
Valide du 21 à 09h jusqu'au 22 à 09h UTC


210800Z 2109/2209 04010KT CAVOK
BECMG 2118/2120 VRB02KT
BECMG 2203/2205 3000 BR
TEMPO 2205/2207 0800 BCFG SCT001
BECMG 2207/2208 8000 NSW
Pas de NOTAMs connus pour ce terrain.



MET'MAP, la Météo Aéronautique d'un coup d'oeil ! - Copyright ORBIFLY Décembre 2007 - Disclaimer

ORBIFLY MET'MAP TEAM :

Programmation & Développement : Alexandra Zaïnal
Conception & Développement : Baudouin d'Aumeries
Co-Programmation & Développement : Marc-Olivier Méhu
Soutien technique & logistique : Manuel Goepfert

Contact : metmap@orbifly.com




SOURCES & CREDITS :

   NOAA